createdAt,value
2023-05-14T00:00:45.103Z,32.59
2023-05-14T00:01:45.167Z,32.60
2023-05-14T00:02:45.282Z,32.60
2023-05-14T00:03:45.320Z,32.63
2023-05-14T00:04:45.335Z,32.53
2023-05-14T00:05:45.381Z,32.59
2023-05-14T00:06:45.414Z,32.50
2023-05-14T00:07:45.502Z,32.48
2023-05-14T00:08:45.528Z,32.49
2023-05-14T00:09:45.621Z,32.50
2023-05-14T00:10:45.705Z,32.47
2023-05-14T00:11:45.699Z,32.48
2023-05-14T00:12:45.757Z,32.42
2023-05-14T00:13:45.808Z,32.49
2023-05-14T00:14:45.871Z,32.57
2023-05-14T00:15:45.956Z,32.56
2023-05-14T00:16:45.989Z,32.50
2023-05-14T00:17:46.114Z,32.53
2023-05-14T00:18:46.119Z,32.53
2023-05-14T00:19:46.170Z,32.53
2023-05-14T00:20:46.161Z,32.51
2023-05-14T00:21:46.216Z,32.62
2023-05-14T00:22:46.182Z,32.50
2023-05-14T00:23:46.285Z,32.43
2023-05-14T00:24:46.190Z,32.49
2023-05-14T00:25:46.185Z,32.51
2023-05-14T00:26:46.191Z,32.50
2023-05-14T00:27:46.210Z,32.51
2023-05-14T00:28:46.191Z,32.51
2023-05-14T00:29:46.248Z,32.60
2023-05-14T00:30:46.271Z,32.47
2023-05-14T00:31:46.516Z,32.53
2023-05-14T00:32:46.425Z,32.47
2023-05-14T00:33:46.441Z,32.50
2023-05-14T00:34:46.514Z,32.53
2023-05-14T00:35:46.583Z,32.38
2023-05-14T00:36:46.628Z,32.53
2023-05-14T00:37:46.667Z,32.59
2023-05-14T00:38:46.723Z,32.63
2023-05-14T00:39:46.778Z,32.57
2023-05-14T00:40:46.828Z,32.57
2023-05-14T00:41:46.907Z,32.61
2023-05-14T00:42:46.933Z,32.65
2023-05-14T00:43:46.988Z,32.61
2023-05-14T00:44:47.085Z,32.65
2023-05-14T00:45:47.231Z,32.68
2023-05-14T00:46:47.241Z,32.70
2023-05-14T00:47:47.341Z,32.75
2023-05-14T00:48:47.290Z,32.71
2023-05-14T00:49:47.373Z,32.72
2023-05-14T00:50:47.430Z,32.68
2023-05-14T00:51:47.497Z,32.67
2023-05-14T00:52:47.548Z,32.70
2023-05-14T00:53:47.608Z,32.75
2023-05-14T00:54:47.674Z,32.82
2023-05-14T00:55:47.708Z,32.74
2023-05-14T00:56:47.775Z,32.79
2023-05-14T00:57:47.848Z,32.79
2023-05-14T00:58:47.893Z,32.79
2023-05-14T00:59:47.954Z,32.75
2023-05-14T01:00:48.041Z,32.80
2023-05-14T01:01:48.087Z,32.80
2023-05-14T01:02:48.250Z,32.88
2023-05-14T01:03:48.260Z,32.85
2023-05-14T01:04:48.264Z,32.86
2023-05-14T01:05:48.266Z,32.85
2023-05-14T01:06:48.265Z,32.83
2023-05-14T01:07:48.276Z,32.83
2023-05-14T01:08:48.277Z,32.83
2023-05-14T01:09:48.277Z,32.86
2023-05-14T01:10:48.269Z,32.79
2023-05-14T01:11:48.277Z,32.71
2023-05-14T01:12:48.273Z,32.65
2023-05-14T01:13:48.286Z,32.80
2023-05-14T01:14:48.348Z,32.78
2023-05-14T01:15:48.398Z,32.75
2023-05-14T01:16:48.497Z,32.67
2023-05-14T01:17:48.613Z,32.66
2023-05-14T01:18:48.605Z,32.64
2023-05-14T01:19:48.672Z,32.59
2023-05-14T01:20:48.708Z,32.69
2023-05-14T01:21:48.783Z,32.65
2023-05-14T01:22:48.833Z,32.68
2023-05-14T01:23:48.906Z,32.64
2023-05-14T01:24:49.011Z,32.67
2023-05-14T01:25:49.108Z,32.57
2023-05-14T01:26:49.102Z,32.64
2023-05-14T01:27:49.159Z,32.62
2023-05-14T01:28:49.213Z,32.62
2023-05-14T01:29:49.268Z,32.48
2023-05-14T01:30:49.352Z,32.49
2023-05-14T01:31:49.452Z,32.52
2023-05-14T01:32:49.541Z,32.59
2023-05-14T01:33:49.499Z,32.63
2023-05-14T01:34:49.573Z,32.55
2023-05-14T01:35:49.627Z,32.51
2023-05-14T01:36:49.686Z,32.55
2023-05-14T01:37:49.754Z,32.51
2023-05-14T01:38:49.820Z,32.57
2023-05-14T01:39:49.887Z,32.58
2023-05-14T01:40:49.956Z,32.47
2023-05-14T01:41:49.994Z,32.45
2023-05-14T01:42:50.090Z,32.40
2023-05-14T01:43:50.131Z,32.39
2023-05-14T01:44:50.212Z,32.46
2023-05-14T01:45:50.303Z,32.53
2023-05-14T01:46:50.301Z,32.51
2023-05-14T01:47:50.402Z,32.48
2023-05-14T01:48:50.430Z,32.37
2023-05-14T01:49:50.487Z,32.49
2023-05-14T01:50:50.565Z,32.34
2023-05-14T01:51:50.623Z,32.41
2023-05-14T01:52:50.691Z,32.32
2023-05-14T01:53:50.752Z,32.25
2023-05-14T01:54:50.831Z,32.28
2023-05-14T01:55:50.890Z,32.39
2023-05-14T01:56:50.939Z,32.37
2023-05-14T01:57:51.010Z,32.32
2023-05-14T01:58:51.079Z,32.41
2023-05-14T01:59:51.140Z,32.17
2023-05-14T02:00:51.209Z,32.24
2023-05-14T02:01:51.370Z,32.18
2023-05-14T02:02:51.371Z,32.17
2023-05-14T02:03:51.446Z,32.34
2023-05-14T02:04:51.453Z,32.48
2023-05-14T02:05:51.542Z,32.45
2023-05-14T02:06:51.576Z,32.28
2023-05-14T02:07:51.636Z,32.26
2023-05-14T02:08:51.705Z,32.33
2023-05-14T02:09:51.776Z,32.36
2023-05-14T02:10:51.846Z,32.28
2023-05-14T02:11:51.909Z,32.28
2023-05-14T02:12:51.977Z,32.24
2023-05-14T02:13:52.037Z,32.35
2023-05-14T02:14:52.107Z,32.21
2023-05-14T02:15:52.133Z,32.18
2023-05-14T02:16:52.125Z,32.22
2023-05-14T02:17:52.202Z,32.31
2023-05-14T02:18:52.191Z,32.21
2023-05-14T02:19:52.115Z,32.30
2023-05-14T02:20:52.132Z,32.39
2023-05-14T02:21:52.140Z,32.45
2023-05-14T02:22:52.139Z,32.46
2023-05-14T02:23:52.159Z,32.42
2023-05-14T02:24:52.227Z,32.40
2023-05-14T02:25:52.281Z,32.47
2023-05-14T02:26:52.354Z,32.49
2023-05-14T02:27:52.415Z,32.50
2023-05-14T02:28:52.465Z,32.56
2023-05-14T02:29:52.440Z,32.57
2023-05-14T02:30:52.455Z,32.54
2023-05-14T02:31:52.500Z,32.57
2023-05-14T02:32:52.488Z,32.58
2023-05-14T02:33:52.448Z,32.60
2023-05-14T02:34:52.466Z,32.62
2023-05-14T02:35:52.473Z,32.64
2023-05-14T02:36:52.523Z,32.58
2023-05-14T02:37:52.574Z,32.61
2023-05-14T02:38:52.638Z,32.61
2023-05-14T02:39:52.729Z,32.54
2023-05-14T02:40:52.801Z,32.36
2023-05-14T02:41:52.873Z,32.22
2023-05-14T02:42:52.947Z,31.99
2023-05-14T02:43:53.026Z,31.93
2023-05-14T02:44:53.095Z,31.86
2023-05-14T02:45:53.206Z,31.56
2023-05-14T02:46:53.312Z,31.47
2023-05-14T02:47:53.496Z,31.41
2023-05-14T02:48:53.408Z,31.37
2023-05-14T02:49:53.477Z,31.45
2023-05-14T02:50:53.553Z,31.46
2023-05-14T02:51:53.598Z,31.55
2023-05-14T02:52:53.772Z,31.59
2023-05-14T02:53:53.777Z,31.62
2023-05-14T02:54:53.829Z,31.61
2023-05-14T02:55:54.226Z,31.61
2023-05-14T02:56:54.023Z,31.64
2023-05-14T02:57:54.057Z,31.65
2023-05-14T02:58:54.168Z,31.70
2023-05-14T02:59:54.189Z,31.73
2023-05-14T03:00:54.327Z,31.70
2023-05-14T03:01:54.401Z,31.73
2023-05-14T03:02:54.471Z,31.76
2023-05-14T03:03:54.479Z,31.75
2023-05-14T03:04:54.575Z,31.76
2023-05-14T03:05:54.637Z,31.81
2023-05-14T03:06:54.727Z,31.82
2023-05-14T03:07:54.790Z,31.79
2023-05-14T03:08:54.863Z,31.82
2023-05-14T03:09:54.929Z,31.72
2023-05-14T03:10:55.020Z,31.61
2023-05-14T03:11:55.097Z,31.59
2023-05-14T03:12:55.157Z,31.66
2023-05-14T03:13:55.271Z,31.75
2023-05-14T03:14:55.337Z,31.67
2023-05-14T03:15:55.405Z,31.53
2023-05-14T03:16:55.535Z,31.63
2023-05-14T03:17:55.565Z,31.76
2023-05-14T03:18:55.808Z,31.75
2023-05-14T03:19:55.732Z,31.59
2023-05-14T03:20:55.803Z,31.63
2023-05-14T03:21:55.801Z,31.72
2023-05-14T03:22:55.803Z,31.60
2023-05-14T03:23:55.833Z,31.59
2023-05-14T03:24:55.827Z,31.63
2023-05-14T03:25:55.862Z,31.64
2023-05-14T03:26:55.861Z,31.69
2023-05-14T03:27:55.868Z,31.63
2023-05-14T03:28:55.920Z,31.60
2023-05-14T03:29:55.972Z,31.53
2023-05-14T03:30:56.100Z,31.53
2023-05-14T03:31:56.119Z,31.61
2023-05-14T03:32:56.213Z,31.53
2023-05-14T03:33:56.267Z,31.61
2023-05-14T03:34:56.453Z,31.56
2023-05-14T03:35:56.431Z,31.59
2023-05-14T03:36:56.504Z,31.49
2023-05-14T03:37:56.577Z,31.41
2023-05-14T03:38:56.672Z,31.28
2023-05-14T03:39:56.768Z,31.18
2023-05-14T03:40:56.820Z,31.11
2023-05-14T03:41:56.957Z,30.87
2023-05-14T03:42:56.991Z,30.74
2023-05-14T03:43:57.050Z,30.60
2023-05-14T03:44:57.230Z,30.51
2023-05-14T03:45:57.235Z,30.60
2023-05-14T03:46:57.311Z,30.62
2023-05-14T03:47:57.713Z,30.69
2023-05-14T03:48:57.505Z,30.67
2023-05-14T03:49:57.557Z,30.80
2023-05-14T03:50:57.690Z,30.85
2023-05-14T03:51:57.727Z,30.83
2023-05-14T03:52:57.824Z,30.80
2023-05-14T03:53:57.908Z,30.83
2023-05-14T03:54:57.970Z,30.95
2023-05-14T03:55:58.071Z,30.92
2023-05-14T03:56:58.164Z,30.98
2023-05-14T03:57:58.238Z,30.95
2023-05-14T03:58:58.310Z,30.99
2023-05-14T03:59:58.386Z,31.07
2023-05-14T04:00:58.742Z,31.06
2023-05-14T04:01:58.559Z,31.06
2023-05-14T04:02:58.741Z,31.07
2023-05-14T04:03:58.790Z,31.13
2023-05-14T04:04:58.773Z,31.12
2023-05-14T04:05:58.837Z,31.13
2023-05-14T04:06:58.917Z,31.17
2023-05-14T04:07:59.008Z,31.13
2023-05-14T04:08:59.107Z,31.16
2023-05-14T04:09:59.171Z,31.23
2023-05-14T04:10:59.261Z,31.19
2023-05-14T04:11:59.361Z,31.21
2023-05-14T04:12:59.471Z,31.24
2023-05-14T04:13:59.434Z,31.26
2023-05-14T04:14:59.435Z,31.28
2023-05-14T04:15:59.810Z,31.32
2023-05-14T04:17:00.371Z,31.34
2023-05-14T04:17:59.505Z,31.24
2023-05-14T04:18:59.533Z,31.19
2023-05-14T04:19:59.491Z,31.19
2023-05-14T04:20:59.526Z,31.21
2023-05-14T04:21:59.582Z,31.20
2023-05-14T04:22:59.649Z,31.20
2023-05-14T04:23:59.701Z,31.21
2023-05-14T04:24:59.770Z,31.26
2023-05-14T04:25:59.887Z,31.20
2023-05-14T04:26:59.932Z,31.29
2023-05-14T04:28:00.127Z,31.15
2023-05-14T04:29:00.196Z,31.05
2023-05-14T04:30:00.196Z,31.21
2023-05-14T04:31:00.281Z,31.15
2023-05-14T04:32:00.461Z,31.14
2023-05-14T04:33:00.492Z,31.20
2023-05-14T04:34:00.496Z,31.26
2023-05-14T04:35:00.555Z,31.26
2023-05-14T04:36:00.677Z,31.13
2023-05-14T04:37:00.765Z,31.15
2023-05-14T04:38:00.840Z,31.16
2023-05-14T04:39:00.880Z,31.18
2023-05-14T04:40:00.944Z,31.12
2023-05-14T04:41:01.088Z,31.05
2023-05-14T04:42:01.114Z,30.95
2023-05-14T04:43:01.215Z,30.95
2023-05-14T04:44:01.259Z,30.87
2023-05-14T04:45:01.305Z,30.67
2023-05-14T04:46:01.416Z,30.49
2023-05-14T04:47:01.491Z,30.44
2023-05-14T04:48:01.631Z,30.46
2023-05-14T04:49:01.604Z,30.44
2023-05-14T04:50:01.562Z,30.21
2023-05-14T04:51:01.574Z,30.15
2023-05-14T04:52:01.574Z,30.15
2023-05-14T04:53:01.605Z,30.08
2023-05-14T04:54:01.670Z,30.08
2023-05-14T04:55:01.645Z,30.10
2023-05-14T04:56:01.657Z,30.05
2023-05-14T04:57:01.678Z,29.96
2023-05-14T04:58:01.695Z,29.95
2023-05-14T04:59:01.725Z,29.96
2023-05-14T05:00:01.698Z,30.00
2023-05-14T05:01:01.756Z,29.94
2023-05-14T05:02:01.808Z,29.90
2023-05-14T05:03:01.882Z,29.89
2023-05-14T05:04:01.792Z,29.90
2023-05-14T05:05:01.795Z,29.97
2023-05-14T05:06:01.856Z,29.87
2023-05-14T05:07:01.842Z,29.80
2023-05-14T05:08:01.842Z,29.84
2023-05-14T05:09:02.381Z,29.80
2023-05-14T05:10:01.893Z,29.77
2023-05-14T05:11:01.908Z,29.81
2023-05-14T05:12:01.910Z,29.70
2023-05-14T05:13:01.924Z,29.71
2023-05-14T05:14:01.961Z,29.74
2023-05-14T05:15:01.986Z,29.74
2023-05-14T05:16:02.054Z,29.70
2023-05-14T05:17:02.006Z,29.72
2023-05-14T05:18:02.078Z,29.68
2023-05-14T05:19:02.062Z,29.71
2023-05-14T05:20:02.033Z,29.57
2023-05-14T05:21:02.072Z,29.58
2023-05-14T05:22:02.072Z,29.58
2023-05-14T05:23:02.092Z,29.66
2023-05-14T05:24:02.106Z,29.59
2023-05-14T05:25:02.145Z,29.66
2023-05-14T05:26:02.171Z,29.63
2023-05-14T05:27:02.165Z,29.58
2023-05-14T05:28:02.181Z,29.61
2023-05-14T05:29:02.208Z,29.59
2023-05-14T05:30:02.250Z,29.64
2023-05-14T05:31:02.296Z,29.57
2023-05-14T05:32:02.267Z,29.61
2023-05-14T05:33:02.353Z,29.59
2023-05-14T05:34:02.300Z,29.55
2023-05-14T05:35:02.332Z,29.53
2023-05-14T05:36:02.348Z,29.54
2023-05-14T05:37:02.368Z,29.56
2023-05-14T05:38:02.368Z,29.52
2023-05-14T05:39:02.387Z,29.44
2023-05-14T05:40:02.407Z,29.45
2023-05-14T05:41:02.444Z,29.45
2023-05-14T05:42:02.445Z,29.46
2023-05-14T05:43:02.477Z,29.53
2023-05-14T05:44:03.262Z,29.48
2023-05-14T05:45:02.521Z,29.56
2023-05-14T05:46:02.595Z,29.63
2023-05-14T05:47:02.692Z,29.68
2023-05-14T05:48:02.681Z,29.71
2023-05-14T05:49:02.616Z,29.65
2023-05-14T05:50:02.632Z,29.68
2023-05-14T05:51:02.634Z,29.82
2023-05-14T05:52:02.660Z,29.80
2023-05-14T05:53:02.669Z,29.75
2023-05-14T05:54:02.706Z,29.81
2023-05-14T05:55:02.754Z,29.79
2023-05-14T05:56:02.742Z,29.79
2023-05-14T05:57:02.746Z,29.82
2023-05-14T05:58:02.784Z,29.88
2023-05-14T05:59:02.804Z,29.88
2023-05-14T06:00:02.851Z,29.93
2023-05-14T06:01:02.817Z,29.90
2023-05-14T06:02:02.878Z,29.86
2023-05-14T06:03:02.886Z,29.89
2023-05-14T06:04:02.869Z,29.91
2023-05-14T06:05:02.926Z,29.92
2023-05-14T06:06:02.936Z,29.92
2023-05-14T06:07:02.927Z,29.92
2023-05-14T06:08:02.933Z,29.98
2023-05-14T06:09:02.956Z,29.97
2023-05-14T06:10:02.957Z,29.95
2023-05-14T06:11:02.974Z,29.98
2023-05-14T06:12:02.995Z,29.98
2023-05-14T06:13:03.000Z,30.01
2023-05-14T06:14:03.047Z,30.01
2023-05-14T06:15:03.037Z,30.04
2023-05-14T06:16:03.096Z,30.01
2023-05-14T06:17:03.082Z,30.05
2023-05-14T06:18:03.178Z,30.05
2023-05-14T06:19:03.214Z,30.02
2023-05-14T06:20:03.147Z,30.08
2023-05-14T06:21:03.124Z,30.07
2023-05-14T06:22:03.187Z,30.07
2023-05-14T06:23:03.161Z,30.10
2023-05-14T06:24:03.218Z,30.18
2023-05-14T06:25:03.193Z,30.14
2023-05-14T06:26:03.207Z,30.20
2023-05-14T06:27:03.239Z,30.15
2023-05-14T06:28:03.229Z,30.18
2023-05-14T06:29:03.260Z,30.17
2023-05-14T06:30:03.272Z,30.18
2023-05-14T06:31:03.296Z,30.23
2023-05-14T06:32:03.436Z,30.21
2023-05-14T06:33:03.529Z,30.23
2023-05-14T06:34:03.511Z,30.24
2023-05-14T06:35:03.611Z,30.24
2023-05-14T06:36:03.658Z,30.20
2023-05-14T06:37:03.667Z,30.23
2023-05-14T06:38:03.738Z,30.19
2023-05-14T06:39:03.820Z,30.20
2023-05-14T06:40:03.874Z,30.16
2023-05-14T06:41:03.951Z,30.18
2023-05-14T06:42:03.964Z,30.18
2023-05-14T06:43:03.987Z,30.18
2023-05-14T06:44:04.033Z,30.13
2023-05-14T06:45:04.076Z,30.12
2023-05-14T06:46:04.142Z,30.11
2023-05-14T06:47:04.310Z,30.11
2023-05-14T06:48:04.373Z,30.18
2023-05-14T06:49:04.462Z,30.14
2023-05-14T06:50:04.460Z,30.17
2023-05-14T06:51:04.542Z,30.17
2023-05-14T06:52:04.565Z,30.17
2023-05-14T06:53:04.599Z,30.19
2023-05-14T06:54:04.652Z,30.07
2023-05-14T06:55:04.702Z,30.08
2023-05-14T06:56:04.773Z,30.03
2023-05-14T06:57:04.845Z,30.00
2023-05-14T06:58:04.876Z,29.93
2023-05-14T06:59:04.953Z,29.93
2023-05-14T07:00:05.015Z,29.86
2023-05-14T07:01:05.070Z,29.85
2023-05-14T07:02:05.147Z,29.80
2023-05-14T07:03:05.280Z,29.76
2023-05-14T07:04:05.264Z,29.75
2023-05-14T07:05:05.249Z,29.71
2023-05-14T07:06:05.268Z,29.75
2023-05-14T07:07:05.310Z,29.66
2023-05-14T07:08:05.377Z,29.67
2023-05-14T07:09:05.366Z,29.57
2023-05-14T07:10:05.426Z,29.62
2023-05-14T07:11:05.411Z,29.68
2023-05-14T07:12:05.478Z,29.57
2023-05-14T07:13:05.521Z,29.61
2023-05-14T07:14:05.538Z,29.66
2023-05-14T07:15:05.582Z,29.70
2023-05-14T07:16:05.575Z,29.67
2023-05-14T07:17:05.620Z,29.66
2023-05-14T07:18:05.688Z,29.70
2023-05-14T07:19:05.653Z,29.66
2023-05-14T07:20:05.652Z,29.71
2023-05-14T07:21:05.705Z,29.72
2023-05-14T07:22:05.693Z,29.74
2023-05-14T07:23:05.697Z,29.71
2023-05-14T07:24:05.766Z,29.71
2023-05-14T07:25:05.733Z,29.72
2023-05-14T07:26:05.760Z,29.70
2023-05-14T07:27:05.788Z,29.77
2023-05-14T07:28:05.815Z,29.74
2023-05-14T07:29:05.830Z,29.66
2023-05-14T07:30:05.893Z,29.70
2023-05-14T07:31:05.880Z,29.70
2023-05-14T07:32:05.918Z,29.62
2023-05-14T07:33:05.996Z,29.56
2023-05-14T07:34:05.933Z,29.59
2023-05-14T07:35:05.965Z,29.46
2023-05-14T07:36:05.999Z,29.46
2023-05-14T07:37:06.037Z,29.42
2023-05-14T07:38:06.095Z,29.35
2023-05-14T07:39:06.174Z,29.33
2023-05-14T07:40:06.278Z,29.30
2023-05-14T07:41:06.294Z,29.26
2023-05-14T07:42:06.372Z,29.25
2023-05-14T07:43:06.422Z,29.19
2023-05-14T07:44:06.493Z,29.22
2023-05-14T07:45:06.524Z,29.21
2023-05-14T07:46:06.569Z,29.15
2023-05-14T07:47:06.678Z,29.17
2023-05-14T07:48:06.856Z,29.11
2023-05-14T07:49:06.773Z,29.15
2023-05-14T07:50:06.847Z,29.16
2023-05-14T07:51:06.909Z,29.10
2023-05-14T07:52:06.956Z,29.01
2023-05-14T07:53:06.998Z,28.97
2023-05-14T07:54:07.002Z,28.90
2023-05-14T07:55:07.018Z,28.96
2023-05-14T07:56:07.021Z,28.98
2023-05-14T07:57:07.062Z,28.94
2023-05-14T07:58:07.100Z,28.95
2023-05-14T07:59:07.139Z,28.90
2023-05-14T08:00:07.156Z,28.88
2023-05-14T08:01:07.350Z,28.95
2023-05-14T08:02:07.246Z,28.90
2023-05-14T08:03:07.406Z,28.90
2023-05-14T08:04:08.419Z,28.87
2023-05-14T08:05:07.382Z,28.91
2023-05-14T08:06:07.421Z,28.85
2023-05-14T08:07:07.465Z,28.80
2023-05-14T08:08:07.485Z,28.85
2023-05-14T08:09:07.513Z,28.85
2023-05-14T08:10:07.770Z,28.85
2023-05-14T08:11:08.365Z,28.84
2023-05-14T08:12:07.707Z,28.85
2023-05-14T08:13:07.666Z,28.80
2023-05-14T08:14:07.711Z,28.84
2023-05-14T08:15:07.846Z,28.76
2023-05-14T08:16:07.809Z,28.78
2023-05-14T08:17:07.998Z,28.76
2023-05-14T08:18:07.957Z,28.68
2023-05-14T08:19:07.972Z,28.63
2023-05-14T08:20:08.019Z,28.63
2023-05-14T08:21:08.091Z,28.60
2023-05-14T08:22:08.162Z,28.60
2023-05-14T08:23:08.226Z,28.66
2023-05-14T08:24:08.299Z,28.73
2023-05-14T08:25:08.409Z,28.73
2023-05-14T08:26:08.435Z,28.68
2023-05-14T08:27:08.487Z,28.75
2023-05-14T08:28:08.552Z,28.73
2023-05-14T08:29:10.480Z,28.61
2023-05-14T08:30:08.653Z,28.67
2023-05-14T08:31:08.822Z,28.65
2023-05-14T08:32:22.226Z,28.68
2023-05-14T08:33:09.770Z,28.60
2023-05-14T08:34:08.760Z,28.71
2023-05-14T08:35:08.782Z,28.61
2023-05-14T08:36:08.767Z,28.61
2023-05-14T08:37:08.803Z,28.57
2023-05-14T08:38:08.800Z,28.55
2023-05-14T08:39:08.816Z,28.55
2023-05-14T08:40:08.820Z,28.60
2023-05-14T08:41:08.809Z,28.61
2023-05-14T08:42:08.843Z,28.65
2023-05-14T08:43:08.850Z,28.72
2023-05-14T08:44:08.846Z,28.73
2023-05-14T08:45:08.841Z,28.69
2023-05-14T08:46:08.873Z,28.73
2023-05-14T08:47:08.997Z,28.76
2023-05-14T08:48:09.252Z,28.75
2023-05-14T08:49:09.227Z,28.71
2023-05-14T08:50:09.190Z,28.76
2023-05-14T08:51:09.252Z,28.84
2023-05-14T08:52:09.334Z,28.81
2023-05-14T08:53:09.406Z,28.83
2023-05-14T08:54:09.466Z,28.74
2023-05-14T08:55:09.541Z,28.77
2023-05-14T08:56:09.611Z,28.85
2023-05-14T08:57:09.694Z,28.83
2023-05-14T08:58:09.751Z,28.80
2023-05-14T08:59:09.818Z,28.82
2023-05-14T09:00:09.889Z,28.80
2023-05-14T09:01:09.968Z,28.80
2023-05-14T09:02:10.116Z,28.82
2023-05-14T09:03:10.149Z,28.81
2023-05-14T09:04:10.283Z,28.86
2023-05-14T09:05:10.205Z,28.84
2023-05-14T09:06:10.274Z,28.87
2023-05-14T09:07:10.342Z,28.83
2023-05-14T09:08:10.390Z,28.87
2023-05-14T09:09:10.448Z,28.85
2023-05-14T09:10:10.542Z,28.92
2023-05-14T09:11:10.555Z,28.94
2023-05-14T09:12:10.929Z,28.91
2023-05-14T09:13:10.670Z,28.90
2023-05-14T09:14:10.728Z,28.94
2023-05-14T09:15:10.781Z,28.90
2023-05-14T09:16:10.894Z,28.92
2023-05-14T09:17:10.916Z,28.89
2023-05-14T09:18:11.003Z,28.93
2023-05-14T09:19:11.159Z,28.96
2023-05-14T09:20:11.083Z,28.95
2023-05-14T09:21:11.156Z,28.95
2023-05-14T09:22:11.184Z,29.01
2023-05-14T09:23:11.165Z,28.95
2023-05-14T09:24:11.163Z,28.96
2023-05-14T09:25:11.171Z,28.99
2023-05-14T09:26:11.172Z,28.99
2023-05-14T09:27:11.238Z,28.97
2023-05-14T09:28:11.160Z,28.96
2023-05-14T09:29:11.165Z,28.98
2023-05-14T09:30:11.178Z,28.96
2023-05-14T09:31:11.201Z,29.00
2023-05-14T09:32:11.211Z,29.00
2023-05-14T09:33:11.267Z,29.00
2023-05-14T09:34:11.287Z,28.96
2023-05-14T09:35:11.272Z,28.99
2023-05-14T09:36:11.277Z,29.03
2023-05-14T09:37:11.282Z,29.01
2023-05-14T09:38:11.279Z,29.07
2023-05-14T09:39:11.291Z,29.00
2023-05-14T09:40:11.301Z,29.03
2023-05-14T09:41:11.316Z,29.04
2023-05-14T09:42:11.337Z,29.07
2023-05-14T09:43:11.309Z,29.06
2023-05-14T09:44:11.340Z,29.05
2023-05-14T09:45:11.411Z,29.03
2023-05-14T09:46:11.458Z,29.06
2023-05-14T09:47:11.552Z,29.06
2023-05-14T09:48:11.627Z,29.10
2023-05-14T09:49:11.644Z,29.10
2023-05-14T09:50:11.727Z,29.07
2023-05-14T09:51:11.756Z,29.09
2023-05-14T09:52:11.832Z,29.06
2023-05-14T09:53:11.894Z,29.12
2023-05-14T09:54:11.955Z,29.09
2023-05-14T09:55:12.006Z,29.15
2023-05-14T09:56:12.077Z,29.15
2023-05-14T09:57:12.139Z,29.12
2023-05-14T09:58:12.172Z,29.13
2023-05-14T09:59:12.243Z,29.15
2023-05-14T10:00:12.311Z,29.16
2023-05-14T10:01:12.435Z,29.15
2023-05-14T10:02:12.436Z,29.19
2023-05-14T10:03:12.533Z,29.20
2023-05-14T10:04:12.599Z,29.23
2023-05-14T10:05:12.603Z,29.28
2023-05-14T10:06:12.664Z,29.29
2023-05-14T10:07:12.744Z,29.29
2023-05-14T10:08:12.798Z,29.28
2023-05-14T10:09:12.839Z,29.31
2023-05-14T10:10:12.905Z,29.34
2023-05-14T10:11:12.975Z,29.40
2023-05-14T10:12:13.020Z,29.37
2023-05-14T10:13:13.080Z,29.43
2023-05-14T10:14:13.153Z,29.43
2023-05-14T10:15:13.307Z,29.45
2023-05-14T10:16:13.261Z,29.44
2023-05-14T10:17:13.457Z,29.41
2023-05-14T10:18:13.447Z,29.44
2023-05-14T10:19:13.477Z,29.45
2023-05-14T10:20:13.514Z,29.48
2023-05-14T10:21:13.569Z,29.45
2023-05-14T10:22:13.654Z,29.45
2023-05-14T10:23:13.686Z,29.47
2023-05-14T10:24:13.774Z,29.51
2023-05-14T10:25:13.817Z,29.51
2023-05-14T10:26:13.900Z,29.48
2023-05-14T10:27:13.947Z,29.51
2023-05-14T10:28:14.134Z,29.58
2023-05-14T10:29:14.200Z,29.54
2023-05-14T10:30:14.107Z,29.57
2023-05-14T10:31:14.187Z,29.60
2023-05-14T10:32:14.242Z,29.62
2023-05-14T10:33:14.391Z,29.54
2023-05-14T10:34:14.457Z,29.53
2023-05-14T10:35:14.417Z,29.57
2023-05-14T10:36:14.494Z,29.66
2023-05-14T10:37:14.554Z,29.69
2023-05-14T10:38:14.593Z,29.65
2023-05-14T10:39:14.662Z,29.72
2023-05-14T10:40:14.774Z,29.69
2023-05-14T10:41:14.798Z,29.68
2023-05-14T10:42:14.872Z,29.72
2023-05-14T10:43:14.937Z,29.73
2023-05-14T10:44:14.976Z,29.72
2023-05-14T10:45:15.049Z,29.76
2023-05-14T10:46:15.155Z,29.75
2023-05-14T10:47:15.187Z,29.69
2023-05-14T10:48:15.260Z,29.69
2023-05-14T10:49:16.629Z,29.75
2023-05-14T10:50:15.278Z,29.80
2023-05-14T10:51:15.316Z,29.79
2023-05-14T10:52:15.296Z,29.88
2023-05-14T10:53:15.297Z,29.79
2023-05-14T10:54:15.297Z,29.76
2023-05-14T10:55:15.300Z,29.82
2023-05-14T10:56:15.309Z,29.79
2023-05-14T10:57:15.334Z,29.90
2023-05-14T10:58:15.337Z,29.90
2023-05-14T10:59:15.339Z,29.89
2023-05-14T11:00:15.333Z,29.88
2023-05-14T11:01:15.337Z,29.86
2023-05-14T11:02:16.055Z,29.82
2023-05-14T11:03:15.450Z,29.82
2023-05-14T11:04:15.378Z,29.89
2023-05-14T11:05:15.449Z,29.88
2023-05-14T11:06:15.375Z,29.85
2023-05-14T11:07:15.361Z,29.88
2023-05-14T11:08:15.391Z,29.88
2023-05-14T11:09:15.385Z,29.81
2023-05-14T11:10:15.428Z,29.87
2023-05-14T11:11:15.426Z,29.82
2023-05-14T11:12:15.398Z,29.82
2023-05-14T11:13:15.398Z,29.91
2023-05-14T11:14:15.425Z,29.89
2023-05-14T11:15:15.413Z,29.88
2023-05-14T11:16:23.447Z,29.90
2023-05-14T11:17:16.524Z,29.92
2023-05-14T11:18:16.023Z,29.93
2023-05-14T11:19:15.640Z,29.88
2023-05-14T11:20:15.447Z,29.93
2023-05-14T11:21:15.558Z,29.94
2023-05-14T11:22:15.443Z,29.97
2023-05-14T11:23:15.443Z,29.95
2023-05-14T11:24:15.466Z,29.94
2023-05-14T11:25:15.474Z,29.93
2023-05-14T11:26:15.504Z,29.96
2023-05-14T11:27:15.484Z,29.98
2023-05-14T11:28:15.489Z,29.96
2023-05-14T11:29:15.552Z,29.96
2023-05-14T11:30:15.634Z,29.94
2023-05-14T11:31:15.714Z,29.94
2023-05-14T11:32:15.730Z,30.00
2023-05-14T11:33:15.833Z,29.96
2023-05-14T11:34:15.811Z,29.98
2023-05-14T11:35:15.886Z,29.98
2023-05-14T11:36:15.916Z,30.03
2023-05-14T11:37:15.976Z,30.03
2023-05-14T11:38:15.994Z,30.01
2023-05-14T11:39:16.054Z,30.03
2023-05-14T11:40:16.108Z,30.05
2023-05-14T11:41:16.200Z,30.04
2023-05-14T11:42:16.205Z,30.07
2023-05-14T11:43:16.262Z,30.07
2023-05-14T11:44:16.293Z,30.08
2023-05-14T11:45:16.360Z,30.07
2023-05-14T11:46:16.426Z,30.08
2023-05-14T11:47:16.491Z,30.08
2023-05-14T11:48:16.509Z,30.08
2023-05-14T11:49:16.547Z,30.08
2023-05-14T11:50:16.659Z,30.13
2023-05-14T11:51:16.665Z,30.04
2023-05-14T11:52:16.703Z,30.14
2023-05-14T11:53:16.730Z,30.06
2023-05-14T11:54:16.782Z,30.14
2023-05-14T11:55:16.811Z,30.10
2023-05-14T11:56:16.860Z,30.14
2023-05-14T11:57:16.900Z,30.13
2023-05-14T11:58:16.996Z,30.13
2023-05-14T11:59:17.002Z,30.16
2023-05-14T12:00:17.072Z,30.13
2023-05-14T12:01:17.073Z,30.15
2023-05-14T12:02:17.158Z,30.14
2023-05-14T12:03:17.246Z,30.13
2023-05-14T12:04:17.248Z,30.17
2023-05-14T12:05:17.130Z,30.17
2023-05-14T12:06:17.127Z,30.17
2023-05-14T12:07:17.170Z,30.18
2023-05-14T12:08:17.151Z,30.18
2023-05-14T12:09:17.168Z,30.18
2023-05-14T12:10:17.130Z,30.26
2023-05-14T12:11:17.121Z,30.27
2023-05-14T12:12:17.162Z,30.27
2023-05-14T12:13:17.155Z,30.31
2023-05-14T12:14:17.147Z,30.32
2023-05-14T12:15:17.173Z,30.31
2023-05-14T12:16:17.242Z,30.34
2023-05-14T12:17:17.208Z,30.32
2023-05-14T12:18:24.733Z,30.35
2023-05-14T12:19:18.193Z,30.34
2023-05-14T12:20:17.198Z,30.41
2023-05-14T12:21:17.223Z,30.36
2023-05-14T12:22:17.188Z,30.40
2023-05-14T12:23:17.203Z,30.42
2023-05-14T12:24:17.208Z,30.45
2023-05-14T12:25:17.201Z,30.45
2023-05-14T12:26:17.182Z,30.45
2023-05-14T12:27:17.179Z,30.43
2023-05-14T12:28:17.180Z,30.45
2023-05-14T12:29:17.208Z,30.43
2023-05-14T12:30:21.795Z,30.47
2023-05-14T12:31:18.258Z,30.49
2023-05-14T12:32:17.173Z,30.52
2023-05-14T12:33:17.551Z,30.47
2023-05-14T12:34:17.201Z,30.49
2023-05-14T12:35:17.229Z,30.49
2023-05-14T12:36:21.726Z,30.50
2023-05-14T12:37:17.200Z,30.54
2023-05-14T12:38:17.206Z,30.57
2023-05-14T12:39:17.206Z,30.59
2023-05-14T12:40:17.245Z,30.53
2023-05-14T12:41:17.200Z,30.59
2023-05-14T12:42:17.233Z,30.54
2023-05-14T12:43:17.255Z,30.57
2023-05-14T12:44:17.210Z,30.59
2023-05-14T12:45:17.228Z,30.63
2023-05-14T12:46:17.301Z,30.64
2023-05-14T12:47:17.318Z,30.62
2023-05-14T12:48:17.266Z,30.60
2023-05-14T12:49:17.246Z,30.59
2023-05-14T12:50:17.263Z,30.64
2023-05-14T12:51:17.274Z,30.68
2023-05-14T12:52:33.037Z,30.59
2023-05-14T12:53:18.265Z,30.60